Time;durP1;ratioP1;P1;durP2;ratioP2;P2;SDS_P1;SDS_P2;PMS_P1;PMS_P2;Temp;Humidity;BMP_temperature;BMP_pressure;BME280_temperature;BME280_humidity;BME280_pressure;Samples;Min_cycle;Max_cycle;Signal;HPM_P1;HPM_P2
2021/03/18 00:02:19;;;;;;;16.93;15.40;;;;;;;;;;5033348;28;20473;-66
2021/03/18 00:04:45;;;;;;;18.43;16.63;;;;;;;;;;5033743;28;20449;-65
2021/03/18 00:07:12;;;;;;;19.53;17.83;;;;;;;;;;5033586;28;20448;-66
2021/03/18 00:09:39;;;;;;;18.07;16.50;;;;;;;;;;5033280;28;20459;-65
2021/03/18 00:12:06;;;;;;;20.93;19.13;;;;;;;;;;5033693;28;20472;-64
2021/03/18 00:14:33;;;;;;;20.33;18.60;;;;;;;;;;5033532;28;20457;-66
2021/03/18 00:16:59;;;;;;;20.13;18.33;;;;;;;;;;5013086;28;20477;-64
2021/03/18 00:19:27;;;;;;;21.90;19.80;;;;;;;;;;5026399;28;20819;-64
2021/03/18 00:21:53;;;;;;;22.60;20.50;;;;;;;;;;5033065;28;20473;-64
2021/03/18 00:24:20;;;;;;;21.37;19.47;;;;;;;;;;5031873;28;20475;-64
2021/03/18 00:26:47;;;;;;;23.03;21.03;;;;;;;;;;5016181;28;20505;-66
2021/03/18 00:29:13;;;;;;;24.27;22.07;;;;;;;;;;5033036;28;20452;-65
2021/03/18 00:31:40;;;;;;;23.57;21.37;;;;;;;;;;5032897;28;20480;-65
2021/03/18 00:34:06;;;;;;;25.70;23.40;;;;;;;;;;5027370;28;20971;-65
2021/03/18 00:36:34;;;;;;;24.60;22.40;;;;;;;;;;5013681;28;20531;-65
2021/03/18 00:39:01;;;;;;;25.00;22.43;;;;;;;;;;5015138;28;20454;-64
2021/03/18 00:41:28;;;;;;;25.97;23.67;;;;;;;;;;5017453;28;20594;-65
2021/03/18 00:43:55;;;;;;;26.20;23.80;;;;;;;;;;5014261;28;20552;-66
2021/03/18 00:46:22;;;;;;;26.20;23.60;;;;;;;;;;5032819;28;20456;-64
2021/03/18 00:48:48;;;;;;;27.60;25.00;;;;;;;;;;5018728;28;20450;-64
2021/03/18 00:51:16;;;;;;;26.13;23.93;;;;;;;;;;5013138;28;20465;-64
2021/03/18 00:53:44;;;;;;;27.40;25.00;;;;;;;;;;5012733;28;20996;-64
2021/03/18 00:56:12;;;;;;;29.23;26.43;;;;;;;;;;5012942;28;20523;-64
2021/03/18 00:58:39;;;;;;;28.90;26.20;;;;;;;;;;5018822;28;20448;-64
2021/03/18 01:01:06;;;;;;;27.77;25.17;;;;;;;;;;5030987;28;20563;-64
2021/03/18 01:03:34;;;;;;;29.13;26.37;;;;;;;;;;5032796;28;20520;-64
2021/03/18 01:06:01;;;;;;;29.47;26.60;;;;;;;;;;5032184;28;20448;-65
2021/03/18 01:08:29;;;;;;;30.60;27.80;;;;;;;;;;5021199;28;20445;-65
2021/03/18 01:10:58;;;;;;;29.47;26.77;;;;;;;;;;5012731;28;20482;-65
2021/03/18 01:13:25;;;;;;;30.43;27.70;;;;;;;;;;5012934;28;20526;-65
2021/03/18 01:15:54;;;;;;;28.67;25.87;;;;;;;;;;5013713;28;20460;-65
2021/03/18 01:18:22;;;;;;;31.57;28.63;;;;;;;;;;5023669;28;20850;-65
2021/03/18 01:20:48;;;;;;;30.03;27.10;;;;;;;;;;5032216;28;20476;-64
2021/03/18 01:23:15;;;;;;;31.00;27.90;;;;;;;;;;5022126;28;20456;-64
2021/03/18 01:25:42;;;;;;;30.67;27.73;;;;;;;;;;5025736;28;20453;-64
2021/03/18 01:28:10;;;;;;;30.40;27.70;;;;;;;;;;5029666;28;20952;-65
2021/03/18 01:30:38;;;;;;;30.83;27.93;;;;;;;;;;5031541;28;20983;-65
2021/03/18 01:33:05;;;;;;;31.70;28.57;;;;;;;;;;5024047;28;20449;-65
2021/03/18 01:35:31;;;;;;;28.57;25.90;;;;;;;;;;5014944;28;20460;-64
2021/03/18 01:37:58;;;;;;;29.43;26.53;;;;;;;;;;5023216;28;20487;-64
2021/03/18 01:40:26;;;;;;;32.00;28.70;;;;;;;;;;5031872;28;20456;-65
2021/03/18 01:42:53;;;;;;;33.63;30.17;;;;;;;;;;5032012;28;20993;-65
2021/03/18 01:45:20;;;;;;;35.50;31.93;;;;;;;;;;5031677;28;20479;-65
2021/03/18 01:47:49;;;;;;;36.13;32.50;;;;;;;;;;5022923;28;20455;-65
2021/03/18 01:50:17;;;;;;;37.83;33.80;;;;;;;;;;5012089;28;20485;-65
2021/03/18 01:52:43;;;;;;;36.87;32.83;;;;;;;;;;5012181;28;20445;-65
2021/03/18 01:55:13;;;;;;;37.03;33.40;;;;;;;;;;5028583;28;20833;-65
2021/03/18 01:57:40;;;;;;;36.63;32.97;;;;;;;;;;5031891;28;20485;-67
2021/03/18 02:00:07;;;;;;;38.10;34.03;;;;;;;;;;5031459;28;20460;-67
2021/03/18 02:02:36;;;;;;;37.90;34.17;;;;;;;;;;5017812;28;20971;-67
2021/03/18 02:05:02;;;;;;;35.17;31.53;;;;;;;;;;5031523;28;20463;-67
2021/03/18 02:07:29;;;;;;;39.40;35.23;;;;;;;;;;5031550;28;20528;-66
2021/03/18 02:09:56;;;;;;;39.83;35.40;;;;;;;;;;5031251;28;20536;-67
2021/03/18 02:12:22;;;;;;;39.13;35.03;;;;;;;;;;5026293;28;20477;-67
2021/03/18 02:14:49;;;;;;;42.97;34.60;;;;;;;;;;5022938;28;20551;-67
2021/03/18 02:17:18;;;;;;;38.70;34.57;;;;;;;;;;5022888;28;20481;-67
2021/03/18 02:20:03;;;;;;;43.90;35.53;;;;;;;;;;5026935;28;20936;-66
2021/03/18 02:22:38;;;;;;;46.70;37.70;;;;;;;;;;5015163;28;20988;-66
2021/03/18 02:25:07;;;;;;;42.63;35.73;;;;;;;;;;5013425;28;20525;-66
2021/03/18 02:27:54;;;;;;;46.40;36.53;;;;;;;;;;5030763;28;20476;-65
2021/03/18 02:30:37;;;;;;;45.07;35.97;;;;;;;;;;5024009;28;20483;-67
2021/03/18 02:33:19;;;;;;;47.03;39.37;;;;;;;;;;5027715;23;20502;-65
2021/03/18 02:35:47;;;;;;;52.93;41.10;;;;;;;;;;4963448;28;20649;-66
2021/03/18 02:38:15;;;;;;;49.10;39.97;;;;;;;;;;5010330;28;20482;-66
2021/03/18 02:40:42;;;;;;;46.17;37.07;;;;;;;;;;5018805;28;20445;-65
2021/03/18 02:43:11;;;;;;;49.00;38.40;;;;;;;;;;5015934;28;20565;-66
2021/03/18 02:45:39;;;;;;;50.73;39.43;;;;;;;;;;5016086;28;20477;-64
2021/03/18 02:48:08;;;;;;;54.60;42.53;;;;;;;;;;5013961;28;20450;-65
2021/03/18 02:50:36;;;;;;;53.20;40.63;;;;;;;;;;5003457;28;20485;-65
2021/03/18 02:53:05;;;;;;;51.30;39.20;;;;;;;;;;5003511;28;20466;-66
2021/03/18 02:55:32;;;;;;;42.83;35.60;;;;;;;;;;5016768;28;20545;-66
2021/03/18 02:58:00;;;;;;;42.23;34.20;;;;;;;;;;5006796;28;20500;-65
2021/03/18 03:00:27;;;;;;;44.17;32.53;;;;;;;;;;5001393;28;20464;-65
2021/03/18 03:02:54;;;;;;;40.00;34.10;;;;;;;;;;4998169;28;20557;-66
2021/03/18 03:05:22;;;;;;;43.20;30.00;;;;;;;;;;5002336;28;20450;-65
2021/03/18 03:07:50;;;;;;;42.00;32.20;;;;;;;;;;5018540;28;20446;-66
2021/03/18 03:10:20;;;;;;;41.97;31.00;;;;;;;;;;5023379;28;20470;-65
2021/03/18 03:12:47;;;;;;;53.83;30.53;;;;;;;;;;4993541;28;20809;-65
2021/03/18 03:15:15;;;;;;;36.70;28.53;;;;;;;;;;5005338;28;20450;-65
2021/03/18 03:17:42;;;;;;;27.73;24.80;;;;;;;;;;5009398;28;20853;-65
2021/03/18 03:20:10;;;;;;;27.33;22.70;;;;;;;;;;4997991;28;20458;-64
2021/03/18 03:22:37;;;;;;;35.43;23.70;;;;;;;;;;5011672;28;20532;-65
2021/03/18 03:25:05;;;;;;;35.63;24.20;;;;;;;;;;5011588;28;20450;-65
2021/03/18 03:27:32;;;;;;;26.10;21.70;;;;;;;;;;4993068;28;20478;-66
2021/03/18 03:30:00;;;;;;;31.57;24.60;;;;;;;;;;4996620;28;20454;-65
2021/03/18 03:32:26;;;;;;;33.07;25.97;;;;;;;;;;5003187;28;20844;-65
2021/03/18 03:34:53;;;;;;;28.53;24.70;;;;;;;;;;4995209;28;20450;-65
2021/03/18 03:37:20;;;;;;;26.20;20.57;;;;;;;;;;5002624;28;20559;-65
2021/03/18 03:39:47;;;;;;;33.30;20.53;;;;;;;;;;5015449;28;20453;-65
2021/03/18 03:42:14;;;;;;;26.40;18.50;;;;;;;;;;5013618;28;20492;-65
2021/03/18 03:44:42;;;;;;;26.43;17.97;;;;;;;;;;5014739;28;20791;-65
2021/03/18 03:47:09;;;;;;;25.83;19.03;;;;;;;;;;4999425;28;20756;-65
2021/03/18 03:49:36;;;;;;;21.60;18.20;;;;;;;;;;4995287;28;20473;-65
2021/03/18 03:52:08;;;;;;;23.77;17.63;;;;;;;;;;5008871;28;20473;-65
2021/03/18 03:54:37;;;;;;;23.00;18.20;;;;;;;;;;5014522;28;20438;-65
2021/03/18 03:57:06;;;;;;;27.47;18.80;;;;;;;;;;4997544;28;20490;-65
2021/03/18 03:59:36;;;;;;;24.73;19.13;;;;;;;;;;5005491;28;21012;-65
2021/03/18 04:02:05;;;;;;;32.53;20.83;;;;;;;;;;4999987;28;21032;-65
2021/03/18 04:04:34;;;;;;;26.80;20.30;;;;;;;;;;4997328;28;20954;-64
2021/03/18 04:07:01;;;;;;;30.23;18.90;;;;;;;;;;4995384;28;20450;-65
2021/03/18 04:09:29;;;;;;;32.70;20.77;;;;;;;;;;4999124;28;20480;-64
2021/03/18 04:11:56;;;;;;;34.57;22.70;;;;;;;;;;5001620;28;21058;-65
2021/03/18 04:14:24;;;;;;;35.30;21.10;;;;;;;;;;4997273;28;20478;-65
2021/03/18 04:16:52;;;;;;;31.60;21.30;;;;;;;;;;5012338;28;20481;-65
2021/03/18 04:19:20;;;;;;;31.60;20.90;;;;;;;;;;4994589;28;20546;-65
2021/03/18 04:21:49;;;;;;;35.83;20.80;;;;;;;;;;5004608;28;20504;-65
2021/03/18 04:24:16;;;;;;;27.73;19.20;;;;;;;;;;5001555;28;20452;-65
2021/03/18 04:26:43;;;;;;;23.03;18.60;;;;;;;;;;5013560;28;20541;-64
2021/03/18 04:29:10;;;;;;;26.97;19.40;;;;;;;;;;4997364;28;21095;-65
2021/03/18 04:31:38;;;;;;;32.73;21.60;;;;;;;;;;5003226;28;20871;-65
2021/03/18 04:34:05;;;;;;;27.70;21.30;;;;;;;;;;5002356;28;20512;-65
2021/03/18 04:36:33;;;;;;;26.50;20.47;;;;;;;;;;5006391;28;20541;-65
2021/03/18 04:39:00;;;;;;;33.30;23.07;;;;;;;;;;4993535;28;20534;-65
2021/03/18 04:41:28;;;;;;;33.43;24.10;;;;;;;;;;4990533;28;20492;-66
2021/03/18 04:43:55;;;;;;;30.13;23.47;;;;;;;;;;4995307;28;21035;-64
2021/03/18 04:46:22;;;;;;;33.93;22.73;;;;;;;;;;4993670;28;20455;-66
2021/03/18 04:48:49;;;;;;;37.30;24.00;;;;;;;;;;5010176;28;20541;-66
2021/03/18 04:51:16;;;;;;;32.10;23.13;;;;;;;;;;5006151;28;20454;-65
2021/03/18 04:53:43;;;;;;;34.03;24.67;;;;;;;;;;4993047;28;20474;-65
2021/03/18 04:56:11;;;;;;;30.67;24.43;;;;;;;;;;4993269;28;20450;-66
2021/03/18 04:58:38;;;;;;;34.57;22.07;;;;;;;;;;4993525;28;20543;-66
2021/03/18 05:01:06;;;;;;;41.10;21.80;;;;;;;;;;4998817;28;20538;-64
2021/03/18 05:03:33;;;;;;;35.03;20.70;;;;;;;;;;4994212;28;20466;-66
2021/03/18 05:06:01;;;;;;;34.67;23.93;;;;;;;;;;5008800;28;20457;-66
2021/03/18 05:08:28;;;;;;;34.27;27.47;;;;;;;;;;5012938;28;20445;-66
2021/03/18 05:10:56;;;;;;;41.70;27.33;;;;;;;;;;5008997;28;20533;-66
2021/03/18 05:13:25;;;;;;;38.10;25.13;;;;;;;;;;4993171;28;20477;-66
2021/03/18 05:15:52;;;;;;;44.60;28.30;;;;;;;;;;5007032;28;20956;-66
2021/03/18 05:18:19;;;;;;;40.30;29.00;;;;;;;;;;5003443;28;20576;-66
2021/03/18 05:20:47;;;;;;;48.30;31.07;;;;;;;;;;5011377;28;20967;-66
2021/03/18 05:23:14;;;;;;;44.93;30.60;;;;;;;;;;5012018;28;21034;-66
2021/03/18 05:25:41;;;;;;;48.67;30.90;;;;;;;;;;5011479;28;20544;-66
2021/03/18 05:28:09;;;;;;;39.57;29.77;;;;;;;;;;5012341;28;20450;-65
2021/03/18 05:30:36;;;;;;;62.53;30.37;;;;;;;;;;5008140;28;20473;-65
2021/03/18 05:33:04;;;;;;;52.80;32.23;;;;;;;;;;4992863;28;20533;-65
2021/03/18 05:35:31;;;;;;;51.63;32.10;;;;;;;;;;5008031;28;20480;-65
2021/03/18 05:37:58;;;;;;;65.03;32.80;;;;;;;;;;5011982;28;20494;-65
2021/03/18 05:40:24;;;;;;;62.70;35.20;;;;;;;;;;5011015;28;20452;-65
2021/03/18 05:42:51;;;;;;;70.87;32.63;;;;;;;;;;5002830;28;20474;-65
2021/03/18 05:45:20;;;;;;;63.33;34.33;;;;;;;;;;5011933;28;20450;-65
2021/03/18 05:47:46;;;;;;;78.73;33.40;;;;;;;;;;5004261;28;20447;-65
2021/03/18 05:50:15;;;;;;;60.87;33.13;;;;;;;;;;4992209;28;20537;-66
2021/03/18 05:52:42;;;;;;;49.17;32.37;;;;;;;;;;5008275;28;20996;-66
2021/03/18 05:55:10;;;;;;;49.43;31.87;;;;;;;;;;5012090;28;20506;-66
2021/03/18 05:57:37;;;;;;;55.70;33.60;;;;;;;;;;4996433;28;20552;-64
2021/03/18 06:00:05;;;;;;;62.80;32.40;;;;;;;;;;4997000;28;20511;-66
2021/03/18 06:02:33;;;;;;;61.50;33.70;;;;;;;;;;5011840;28;20481;-65
2021/03/18 06:05:01;;;;;;;58.90;33.80;;;;;;;;;;5007944;28;20457;-65
2021/03/18 06:07:28;;;;;;;51.00;33.63;;;;;;;;;;5003214;28;20553;-65
2021/03/18 06:09:56;;;;;;;52.23;32.00;;;;;;;;;;4992364;28;20457;-64
2021/03/18 06:12:23;;;;;;;50.67;31.20;;;;;;;;;;4992733;28;20884;-66
2021/03/18 06:14:49;;;;;;;50.57;32.57;;;;;;;;;;4993431;28;20553;-66
2021/03/18 06:17:17;;;;;;;45.17;31.57;;;;;;;;;;4992123;28;20478;-66
2021/03/18 06:19:44;;;;;;;53.37;34.90;;;;;;;;;;4992587;28;20537;-67
2021/03/18 06:22:11;;;;;;;52.07;34.10;;;;;;;;;;4993535;28;20474;-66
2021/03/18 06:24:47;;;;;;;52.87;34.20;;;;;;;;;;5001617;28;20461;-66
2021/03/18 06:27:21;;;;;;;47.00;32.93;;;;;;;;;;5011624;28;20540;-65
2021/03/18 06:29:48;;;;;;;44.83;33.23;;;;;;;;;;5010321;28;20453;-66
2021/03/18 06:32:18;;;;;;;52.03;34.23;;;;;;;;;;4998869;28;20561;-66
2021/03/18 06:34:47;;;;;;;58.27;33.03;;;;;;;;;;5004068;28;20511;-66
2021/03/18 06:37:37;;;;;;;61.90;32.07;;;;;;;;;;5003904;28;20528;-65
2021/03/18 06:40:11;;;;;;;59.87;31.30;;;;;;;;;;4993472;28;20537;-66
2021/03/18 06:42:38;;;;;;;52.37;34.27;;;;;;;;;;5006387;28;20469;-66
2021/03/18 06:45:09;;;;;;;65.13;32.60;;;;;;;;;;5004470;28;20553;-66
2021/03/18 06:47:46;;;;;;;61.43;34.00;;;;;;;;;;4995007;28;20449;-66
2021/03/18 06:50:15;;;;;;;63.90;31.37;;;;;;;;;;4998066;28;20454;-66
2021/03/18 06:52:42;;;;;;;50.57;32.93;;;;;;;;;;4991835;28;20996;-66
2021/03/18 06:55:10;;;;;;;57.90;33.23;;;;;;;;;;4991842;28;20533;-65
2021/03/18 06:57:37;;;;;;;20.53;9.13;;;;;;;;;;5004026;28;20507;-65
2021/03/18 07:00:05;;;;;;;11.43;6.73;;;;;;;;;;5011501;28;20862;-66
2021/03/18 07:02:32;;;;;;;11.40;8.07;;;;;;;;;;4993176;28;20887;-68
2021/03/18 07:04:59;;;;;;;13.67;8.43;;;;;;;;;;4986099;28;20458;-68
2021/03/18 07:07:28;;;;;;;13.53;9.07;;;;;;;;;;5003545;28;20504;-65
2021/03/18 07:09:57;;;;;;;13.13;8.40;;;;;;;;;;5009924;28;20473;-63
2021/03/18 07:12:27;;;;;;;10.53;8.43;;;;;;;;;;4984485;28;20479;-63
2021/03/18 07:14:56;;;;;;;9.73;8.73;;;;;;;;;;4976716;28;20882;-63
2021/03/18 07:17:28;;;;;;;9.30;8.50;;;;;;;;;;4985864;28;20535;-62
2021/03/18 07:20:09;;;;;;;9.13;8.30;;;;;;;;;;4980583;28;20458;-63
2021/03/18 07:22:40;;;;;;;8.70;7.90;;;;;;;;;;5009766;28;20480;-63
2021/03/18 07:25:08;;;;;;;8.33;7.53;;;;;;;;;;4978669;28;20452;-63
2021/03/18 07:27:39;;;;;;;8.60;7.90;;;;;;;;;;4975552;28;20450;-63
2021/03/18 07:30:06;;;;;;;8.10;7.40;;;;;;;;;;4999311;28;20483;-63
2021/03/18 07:32:33;;;;;;;6.87;6.17;;;;;;;;;;5005713;28;20564;-63
2021/03/18 07:35:00;;;;;;;7.37;6.67;;;;;;;;;;5010323;28;20454;-63
2021/03/18 07:37:27;;;;;;;7.30;5.43;;;;;;;;;;5004573;28;20478;-64
2021/03/18 07:39:54;;;;;;;5.90;5.30;;;;;;;;;;4981816;28;20461;-63
2021/03/18 07:42:22;;;;;;;6.13;5.53;;;;;;;;;;4998503;28;20497;-63
2021/03/18 07:44:50;;;;;;;8.27;7.47;;;;;;;;;;4995099;28;20469;-63
2021/03/18 07:47:17;;;;;;;5.57;5.03;;;;;;;;;;4996117;28;20532;-63
2021/03/18 07:49:45;;;;;;;5.90;5.37;;;;;;;;;;4995243;28;20542;-63
2021/03/18 07:52:14;;;;;;;9.53;7.13;;;;;;;;;;4996239;28;20478;-63
2021/03/18 07:54:41;;;;;;;5.60;5.10;;;;;;;;;;4994017;28;20446;-63
2021/03/18 07:57:15;;;;;;;21.20;19.20;;;;;;;;;;4994616;28;20486;-64
2021/03/18 07:59:41;;;;;;;30.57;25.80;;;;;;;;;;4994423;28;20578;-64
2021/03/18 08:02:11;;;;;;;20.27;18.17;;;;;;;;;;4986297;28;20876;-63
2021/03/18 08:04:40;;;;;;;21.37;19.13;;;;;;;;;;4975456;28;20483;-64
2021/03/18 08:07:07;;;;;;;18.57;16.63;;;;;;;;;;5000977;28;20451;-64
2021/03/18 08:09:50;;;;;;;19.10;17.10;;;;;;;;;;4994620;28;20835;-64
2021/03/18 08:12:38;;;;;;;21.23;19.03;;;;;;;;;;5004479;28;20529;-64
2021/03/18 08:15:25;;;;;;;21.90;19.70;;;;;;;;;;4976013;28;20974;-66
2021/03/18 08:17:52;;;;;;;22.40;20.10;;;;;;;;;;4976084;28;20486;-64
2021/03/18 08:20:38;;;;;;;23.90;20.47;;;;;;;;;;4994820;28;20537;-64
2021/03/18 08:23:19;;;;;;;22.73;19.90;;;;;;;;;;4988177;28;20501;-65
2021/03/18 08:25:46;;;;;;;23.50;20.07;;;;;;;;;;4993958;28;20455;-66
2021/03/18 08:28:27;;;;;;;23.27;19.53;;;;;;;;;;4981182;28;20538;-64
2021/03/18 08:30:56;;;;;;;24.20;21.70;;;;;;;;;;4974696;28;20541;-66
2021/03/18 08:33:33;;;;;;;24.30;21.80;;;;;;;;;;5024251;23;20489;-67
2021/03/18 08:36:18;;;;;;;22.50;20.20;;;;;;;;;;5029854;28;20531;-67
2021/03/18 08:38:45;;;;;;;21.70;18.90;;;;;;;;;;5032622;28;20530;-67
2021/03/18 08:41:23;;;;;;;21.73;19.40;;;;;;;;;;5029924;28;20613;-68
2021/03/18 08:44:09;;;;;;;21.17;18.93;;;;;;;;;;5030827;28;20482;-67
2021/03/18 08:46:40;;;;;;;21.40;18.80;;;;;;;;;;5037585;28;20468;-65
2021/03/18 08:49:19;;;;;;;18.77;16.77;;;;;;;;;;5046287;28;20440;-69
2021/03/18 08:51:47;;;;;;;22.00;19.70;;;;;;;;;;5023979;28;20478;-67
2021/03/18 08:54:29;;;;;;;22.50;20.20;;;;;;;;;;5033009;28;20480;-66
2021/03/18 08:56:55;;;;;;;21.17;18.90;;;;;;;;;;5025175;28;20527;-65
2021/03/18 08:59:23;;;;;;;23.33;19.80;;;;;;;;;;5032907;28;20960;-64
2021/03/18 09:01:50;;;;;;;25.20;21.20;;;;;;;;;;5041747;28;20449;-63
2021/03/18 09:04:17;;;;;;;22.93;20.53;;;;;;;;;;5032049;28;20469;-64
2021/03/18 09:06:47;;;;;;;23.30;19.97;;;;;;;;;;5036017;28;20543;-64
2021/03/18 09:09:18;;;;;;;20.43;18.50;;;;;;;;;;5019468;28;20882;-64
2021/03/18 09:11:45;;;;;;;21.50;19.17;;;;;;;;;;5025015;28;20448;-66
2021/03/18 09:14:16;;;;;;;20.17;18.13;;;;;;;;;;5031254;28;20887;-65
2021/03/18 09:16:42;;;;;;;21.60;19.47;;;;;;;;;;5025879;28;20443;-65
2021/03/18 09:19:10;;;;;;;19.93;18.00;;;;;;;;;;5031361;28;20484;-65
2021/03/18 09:21:37;;;;;;;20.87;18.67;;;;;;;;;;5034712;28;20452;-65
2021/03/18 09:24:06;;;;;;;19.90;17.80;;;;;;;;;;5031266;28;20534;-65
2021/03/18 09:26:32;;;;;;;19.33;17.33;;;;;;;;;;5034235;28;20467;-66
2021/03/18 09:28:59;;;;;;;19.47;17.57;;;;;;;;;;5029915;28;20467;-66
2021/03/18 09:31:26;;;;;;;18.80;16.90;;;;;;;;;;5032356;28;21011;-67
2021/03/18 09:33:54;;;;;;;14.57;12.17;;;;;;;;;;5030689;28;21002;-67
2021/03/18 09:36:24;;;;;;;12.93;11.63;;;;;;;;;;5030594;28;20452;-67
2021/03/18 09:39:01;;;;;;;12.27;11.00;;;;;;;;;;5015252;28;20538;-67
2021/03/18 09:41:29;;;;;;;12.37;10.43;;;;;;;;;;5031812;28;20719;-64
2021/03/18 09:44:13;;;;;;;14.67;13.23;;;;;;;;;;5047828;28;20471;-65
2021/03/18 09:46:41;;;;;;;15.60;14.20;;;;;;;;;;5032618;28;20429;-65
2021/03/18 09:49:08;;;;;;;17.00;15.20;;;;;;;;;;5046410;28;21003;-65
2021/03/18 09:51:37;;;;;;;15.63;14.13;;;;;;;;;;5012874;28;20528;-65
2021/03/18 09:54:05;;;;;;;14.77;13.50;;;;;;;;;;5027599;28;20526;-64
2021/03/18 09:56:35;;;;;;;16.33;14.37;;;;;;;;;;5031391;28;20495;-64
2021/03/18 09:59:03;;;;;;;15.03;13.50;;;;;;;;;;5023314;28;20489;-65
2021/03/18 10:01:30;;;;;;;15.23;13.80;;;;;;;;;;5031344;28;20453;-65
2021/03/18 10:03:58;;;;;;;15.90;14.27;;;;;;;;;;5030792;28;20475;-65
2021/03/18 10:06:26;;;;;;;13.50;12.20;;;;;;;;;;5044718;28;20538;-65
2021/03/18 10:08:53;;;;;;;14.53;13.20;;;;;;;;;;5045703;28;20455;-64
2021/03/18 10:11:22;;;;;;;14.63;13.33;;;;;;;;;;5029898;28;20479;-64
2021/03/18 10:13:49;;;;;;;14.90;13.20;;;;;;;;;;5031155;28;20479;-64
2021/03/18 10:16:15;;;;;;;14.93;13.33;;;;;;;;;;5031605;28;20468;-64
2021/03/18 10:18:43;;;;;;;14.97;13.57;;;;;;;;;;5031098;28;20539;-64
2021/03/18 10:21:10;;;;;;;13.87;12.47;;;;;;;;;;5030671;28;20449;-64
2021/03/18 10:23:36;;;;;;;14.23;12.93;;;;;;;;;;5032426;28;20559;-64
2021/03/18 10:26:04;;;;;;;14.80;13.40;;;;;;;;;;5031068;28;20494;-64
2021/03/18 10:28:31;;;;;;;14.73;13.43;;;;;;;;;;5032539;28;20444;-64
2021/03/18 10:30:58;;;;;;;13.87;12.13;;;;;;;;;;5031047;28;20448;-64
2021/03/18 10:33:25;;;;;;;14.00;12.70;;;;;;;;;;5030984;28;20487;-65
2021/03/18 10:35:59;;;;;;;14.27;12.77;;;;;;;;;;5030673;28;20451;-64
2021/03/18 10:38:29;;;;;;;16.63;11.90;;;;;;;;;;5037691;28;20844;-65
2021/03/18 10:40:57;;;;;;;13.70;12.40;;;;;;;;;;5035850;28;20499;-64
2021/03/18 10:43:26;;;;;;;14.37;13.13;;;;;;;;;;5035576;28;20465;-65
2021/03/18 10:45:53;;;;;;;13.87;12.47;;;;;;;;;;5034968;28;20449;-65
2021/03/18 10:48:21;;;;;;;13.63;12.33;;;;;;;;;;5035511;28;20453;-65
2021/03/18 10:50:49;;;;;;;6.30;5.00;;;;;;;;;;5037404;28;20478;-65
2021/03/18 10:53:15;;;;;;;11.33;10.10;;;;;;;;;;5034936;28;20465;-66
2021/03/18 10:55:46;;;;;;;10.27;9.40;;;;;;;;;;5034629;28;20848;-64
2021/03/18 10:58:17;;;;;;;11.40;10.30;;;;;;;;;;5035225;28;20836;-63
2021/03/18 11:00:45;;;;;;;9.77;9.07;;;;;;;;;;5034510;28;20531;-66
2021/03/18 11:03:13;;;;;;;10.23;9.17;;;;;;;;;;5051848;28;20562;-65
2021/03/18 11:05:42;;;;;;;10.40;9.33;;;;;;;;;;5018928;28;20450;-66
2021/03/18 11:08:09;;;;;;;9.27;8.47;;;;;;;;;;5034287;28;20928;-66
2021/03/18 11:10:38;;;;;;;9.40;7.63;;;;;;;;;;5034756;28;20451;-66
2021/03/18 11:13:07;;;;;;;7.13;6.53;;;;;;;;;;5034556;28;20542;-66
2021/03/18 11:15:48;;;;;;;7.37;6.67;;;;;;;;;;5034436;28;20472;-66
2021/03/18 11:18:15;;;;;;;6.50;6.00;;;;;;;;;;5034229;28;20487;-66
2021/03/18 11:20:42;;;;;;;7.47;6.87;;;;;;;;;;5034207;28;20483;-66
2021/03/18 11:23:09;;;;;;;6.53;6.03;;;;;;;;;;5034871;28;20522;-66
2021/03/18 11:25:36;;;;;;;7.53;6.83;;;;;;;;;;5033784;28;20453;-66
2021/03/18 11:28:03;;;;;;;7.60;6.70;;;;;;;;;;5050808;28;20848;-65
2021/03/18 11:30:31;;;;;;;7.50;6.90;;;;;;;;;;5052372;28;20950;-66
2021/03/18 11:33:08;;;;;;;8.00;7.20;;;;;;;;;;5037825;28;20481;-65
2021/03/18 11:35:35;;;;;;;7.23;6.53;;;;;;;;;;5047304;28;20450;-66
2021/03/18 11:38:02;;;;;;;7.10;6.50;;;;;;;;;;5043635;28;20545;-66
2021/03/18 11:40:28;;;;;;;7.00;6.40;;;;;;;;;;5026548;28;20456;-66
2021/03/18 11:42:55;;;;;;;8.20;7.50;;;;;;;;;;5034257;28;20470;-65
2021/03/18 11:45:22;;;;;;;6.40;5.80;;;;;;;;;;5034261;28;20457;-66
2021/03/18 11:47:48;;;;;;;7.40;6.80;;;;;;;;;;5053717;28;20436;-66
2021/03/18 11:50:16;;;;;;;7.30;6.70;;;;;;;;;;5052712;28;20444;-65
2021/03/18 11:52:43;;;;;;;7.70;7.00;;;;;;;;;;5035297;28;20507;-66
2021/03/18 11:55:10;;;;;;;8.77;7.90;;;;;;;;;;5033833;28;20881;-65
2021/03/18 11:57:36;;;;;;;7.30;6.70;;;;;;;;;;5035609;28;20983;-65
2021/03/18 12:00:04;;;;;;;8.77;7.77;;;;;;;;;;5030310;28;20484;-65
2021/03/18 12:02:30;;;;;;;7.73;7.03;;;;;;;;;;5032278;28;20456;-66
2021/03/18 12:04:57;;;;;;;8.30;7.50;;;;;;;;;;5026732;28;20449;-65
2021/03/18 12:07:25;;;;;;;7.77;7.13;;;;;;;;;;5040287;28;20975;-65
2021/03/18 12:09:51;;;;;;;6.93;6.47;;;;;;;;;;5054127;28;20547;-65
2021/03/18 12:12:18;;;;;;;7.77;7.17;;;;;;;;;;5038698;28;20459;-66
2021/03/18 12:14:45;;;;;;;8.67;7.87;;;;;;;;;;5035183;28;20506;-67
2021/03/18 12:17:11;;;;;;;9.20;8.40;;;;;;;;;;5038875;28;20548;-65
2021/03/18 12:19:38;;;;;;;8.33;7.40;;;;;;;;;;5013568;28;20481;-65
2021/03/18 12:22:04;;;;;;;8.73;7.90;;;;;;;;;;5052562;28;20455;-65
2021/03/18 12:24:32;;;;;;;8.20;7.60;;;;;;;;;;5053344;28;20475;-65
2021/03/18 12:26:59;;;;;;;9.17;8.43;;;;;;;;;;5034613;28;20452;-65
2021/03/18 12:29:25;;;;;;;10.10;9.13;;;;;;;;;;5033124;28;20536;-65
2021/03/18 12:31:52;;;;;;;10.33;9.33;;;;;;;;;;5049935;28;20458;-65
2021/03/18 12:34:19;;;;;;;10.03;9.03;;;;;;;;;;5052555;28;21067;-65
2021/03/18 12:36:46;;;;;;;9.93;9.03;;;;;;;;;;5050973;28;20815;-64
2021/03/18 12:39:13;;;;;;;9.87;9.07;;;;;;;;;;5031894;28;20480;-64
2021/03/18 12:41:40;;;;;;;10.13;9.33;;;;;;;;;;5046244;28;20451;-64
2021/03/18 12:44:07;;;;;;;9.97;9.00;;;;;;;;;;5045695;28;20473;-63
2021/03/18 12:46:34;;;;;;;10.13;9.20;;;;;;;;;;5032702;28;20510;-62
2021/03/18 12:49:00;;;;;;;10.20;9.40;;;;;;;;;;5032783;28;20535;-64
2021/03/18 12:51:27;;;;;;;9.93;9.03;;;;;;;;;;5032636;28;20507;-63
2021/03/18 12:53:54;;;;;;;10.83;9.90;;;;;;;;;;5032679;28;20975;-62
2021/03/18 12:56:20;;;;;;;10.30;9.37;;;;;;;;;;5031833;28;20468;-62
2021/03/18 12:58:48;;;;;;;10.30;9.50;;;;;;;;;;5031765;28;20498;-62
2021/03/18 13:01:14;;;;;;;9.83;9.00;;;;;;;;;;5032475;28;20523;-62
2021/03/18 13:03:41;;;;;;;11.00;10.10;;;;;;;;;;5033334;28;20480;-62
2021/03/18 13:06:08;;;;;;;9.80;8.97;;;;;;;;;;5032265;28;20936;-63
2021/03/18 13:08:35;;;;;;;9.10;8.30;;;;;;;;;;5032805;28;20448;-62
2021/03/18 13:11:02;;;;;;;9.67;8.67;;;;;;;;;;5032536;28;20858;-62
2021/03/18 13:13:29;;;;;;;10.03;9.20;;;;;;;;;;5046082;28;20479;-62
2021/03/18 13:15:56;;;;;;;10.03;9.07;;;;;;;;;;5052254;28;20447;-63
2021/03/18 13:18:23;;;;;;;9.83;8.97;;;;;;;;;;5031181;28;20968;-62
2021/03/18 13:20:49;;;;;;;9.97;9.17;;;;;;;;;;5012664;28;20449;-63
2021/03/18 13:23:16;;;;;;;10.03;8.83;;;;;;;;;;5034330;28;20525;-62
2021/03/18 13:25:43;;;;;;;10.00;9.00;;;;;;;;;;5035972;28;20472;-62
2021/03/18 13:28:10;;;;;;;10.10;9.20;;;;;;;;;;5037336;28;20863;-64
2021/03/18 13:30:37;;;;;;;9.53;8.70;;;;;;;;;;5031947;28;20458;-63
2021/03/18 13:33:06;;;;;;;9.30;8.53;;;;;;;;;;5037028;28;20479;-62
2021/03/18 13:35:34;;;;;;;8.13;7.43;;;;;;;;;;5031285;28;21053;-62
2021/03/18 13:38:00;;;;;;;8.80;8.10;;;;;;;;;;5038383;28;20569;-62
2021/03/18 13:40:28;;;;;;;9.00;8.20;;;;;;;;;;5051659;28;20944;-63
2021/03/18 13:42:55;;;;;;;8.37;7.57;;;;;;;;;;5046157;28;20907;-62
2021/03/18 13:45:22;;;;;;;8.50;7.80;;;;;;;;;;5031566;28;20523;-62
2021/03/18 13:47:49;;;;;;;8.83;8.03;;;;;;;;;;5035122;28;20448;-63
2021/03/18 13:50:16;;;;;;;8.90;8.10;;;;;;;;;;5051694;28;20448;-64
2021/03/18 13:52:43;;;;;;;8.90;8.20;;;;;;;;;;5049000;28;20486;-64
2021/03/18 13:55:10;;;;;;;8.73;7.93;;;;;;;;;;5031643;28;20449;-62
2021/03/18 13:57:37;;;;;;;9.17;8.07;;;;;;;;;;5045021;28;20451;-63
2021/03/18 14:00:05;;;;;;;8.37;7.67;;;;;;;;;;5032610;28;21239;-62
2021/03/18 14:02:31;;;;;;;8.07;7.37;;;;;;;;;;5043413;28;20456;-62
2021/03/18 14:04:58;;;;;;;7.50;6.80;;;;;;;;;;5035111;28;20509;-62
2021/03/18 14:07:26;;;;;;;8.40;7.47;;;;;;;;;;5031697;28;20552;-63
2021/03/18 14:09:52;;;;;;;7.97;7.40;;;;;;;;;;5031842;28;20444;-62
2021/03/18 14:12:19;;;;;;;7.70;7.10;;;;;;;;;;5036893;28;20448;-62
2021/03/18 14:14:45;;;;;;;9.40;8.60;;;;;;;;;;5025666;28;20788;-62
2021/03/18 14:17:12;;;;;;;9.57;8.77;;;;;;;;;;5031066;28;20821;-62
2021/03/18 14:19:39;;;;;;;11.40;8.90;;;;;;;;;;5035952;28;20475;-63
2021/03/18 14:22:05;;;;;;;10.23;9.27;;;;;;;;;;5031764;28;20535;-62
2021/03/18 14:24:33;;;;;;;10.20;9.30;;;;;;;;;;5031562;28;20472;-62
2021/03/18 14:27:00;;;;;;;10.77;9.70;;;;;;;;;;5033711;28;20453;-65
2021/03/18 14:29:27;;;;;;;10.53;9.53;;;;;;;;;;5031445;28;20574;-62
2021/03/18 14:31:53;;;;;;;10.57;9.50;;;;;;;;;;5026303;28;20467;-62